Time;durP1;ratioP1;P1;durP2;ratioP2;P2;SDS_P1;SDS_P2;PMS_P1;PMS_P2;Temp;Humidity;BMP_temperature;BMP_pressure;BME280_temperature;BME280_humidity;BME280_pressure;Samples;Min_cycle;Max_cycle;Signal;HPM_P1;HPM_P2
2022/12/25 00:01:44;;;;;;;96.07;19.27;;;;;;;4.47;100.00;101313.47;10451512;28;20397;-87
2022/12/25 00:06:45;;;;;;;28.48;12.25;;;;;;;4.42;100.00;101307.94;10439068;28;20453;-87
2022/12/25 00:11:45;;;;;;;24.98;14.70;;;;;;;4.52;100.00;101301.75;10426387;28;20124;-83
2022/12/25 00:16:46;;;;;;;21.27;12.95;;;;;;;4.59;100.00;101321.31;10444264;28;20033;-86
2022/12/25 00:21:46;;;;;;;23.25;12.80;;;;;;;4.72;100.00;101328.34;10442620;28;20033;-86
2022/12/25 00:26:47;;;;;;;29.17;13.50;;;;;;;4.92;100.00;101329.94;10454772;28;20120;-87
2022/12/25 00:31:47;;;;;;;40.58;16.52;;;;;;;5.07;100.00;101320.75;10442638;28;20114;-86
2022/12/25 00:36:51;;;;;;;30.38;13.45;;;;;;;5.21;100.00;101310.53;10449776;28;20059;-84
2022/12/25 00:47:11;;;;;;;22.88;12.05;;;;;;;5.17;100.00;101311.06;10475412;28;20041;-85
2022/12/25 00:52:11;;;;;;;30.70;15.00;;;;;;;5.18;100.00;101297.31;10463305;28;20128;-86
2022/12/25 00:57:12;;;;;;;27.50;13.70;;;;;;;5.27;100.00;101301.50;10475636;28;20120;-85
2022/12/25 01:02:24;;;;;;;34.47;13.88;;;;;;;5.35;100.00;101296.91;10445686;28;20487;-86
2022/12/25 01:07:25;;;;;;;17.45;10.98;;;;;;;5.37;100.00;101284.94;10456042;28;20052;-86
2022/12/25 01:12:26;;;;;;;28.05;12.30;;;;;;;5.34;100.00;101296.75;10488355;28;20044;-86
2022/12/25 01:17:26;;;;;;;35.67;13.95;;;;;;;5.31;100.00;101292.25;10446141;28;20045;-86
2022/12/25 01:22:27;;;;;;;29.33;13.30;;;;;;;5.38;100.00;101298.81;10439758;28;20040;-85
2022/12/25 01:27:27;;;;;;;29.85;12.05;;;;;;;5.46;100.00;101287.31;10424293;28;20044;-85
2022/12/25 01:32:28;;;;;;;24.52;14.27;;;;;;;5.47;100.00;101273.53;10449630;28;20053;-85
2022/12/25 01:37:28;;;;;;;19.13;9.80;;;;;;;5.48;100.00;101275.34;10485015;28;20043;-85
2022/12/25 01:42:29;;;;;;;22.10;12.10;;;;;;;5.47;100.00;101288.22;10440131;28;20469;-85
2022/12/25 01:47:29;;;;;;;17.08;9.90;;;;;;;5.55;100.00;101298.38;10429085;28;20044;-85
2022/12/25 01:52:30;;;;;;;46.15;15.27;;;;;;;5.51;100.00;101300.66;10442490;28;20063;-86
2022/12/25 01:57:32;;;;;;;28.17;11.05;;;;;;;5.55;100.00;101316.56;10425281;28;20468;-85
2022/12/25 02:02:33;;;;;;;21.85;11.32;;;;;;;5.52;100.00;101320.63;10430750;28;20099;-85
2022/12/25 02:07:34;;;;;;;29.15;12.20;;;;;;;5.59;100.00;101331.56;10433898;28;20656;-85
2022/12/25 02:12:35;;;;;;;42.35;14.13;;;;;;;5.56;100.00;101333.06;10432613;28;20041;-84
2022/12/25 02:18:20;;;;;;;38.63;11.43;;;;;;;5.54;100.00;101334.63;10429113;28;20041;-84
2022/12/25 02:23:33;;;;;;;27.77;9.68;;;;;;;5.48;100.00;101319.47;10407217;28;20492;-85
2022/12/25 02:28:58;;;;;;;28.58;12.57;;;;;;;5.43;100.00;101324.34;10434471;28;20049;-85
2022/12/25 02:34:33;;;;;;;25.05;12.02;;;;;;;5.40;100.00;101318.00;10418758;28;20045;-86
2022/12/25 02:39:59;;;;;;;18.00;10.05;;;;;;;5.37;100.00;101341.13;10401888;28;20051;-85
2022/12/25 03:11:38;;;;;;;26.98;11.98;;;;;;;5.58;100.00;101311.59;10478929;28;20045;-86
2022/12/25 03:16:52;;;;;;;26.02;14.30;;;;;;;5.73;100.00;101305.72;10445495;28;20033;-86
2022/12/25 03:27:11;;;;;;;37.67;13.68;;;;;;;5.82;100.00;101270.06;10441948;28;20036;-86
2022/12/25 03:32:30;;;;;;;28.40;12.80;;;;;;;5.88;100.00;101264.41;10474817;28;20036;-86
2022/12/25 04:36:10;;;;;;;43.50;15.68;;;;;;;4.90;100.00;101220.84;10407790;28;20037;-83
2022/12/25 04:41:11;;;;;;;81.38;17.02;;;;;;;4.91;100.00;101221.78;10458661;28;20046;-83
2022/12/25 04:46:12;;;;;;;17.88;11.30;;;;;;;5.00;100.00;101222.47;10404510;28;20044;-82
2022/12/25 04:51:20;;;;;;;23.90;11.80;;;;;;;5.06;100.00;101222.03;10456125;28;20076;-82
2022/12/25 04:56:21;;;;;;;23.00;12.65;;;;;;;4.97;100.00;101212.75;10408922;28;20056;-86
2022/12/25 05:01:21;;;;;;;21.98;13.27;;;;;;;4.98;100.00;101213.66;10415104;28;20131;-86
2022/12/25 05:06:22;;;;;;;23.40;13.65;;;;;;;5.02;100.00;101214.78;10470216;28;20052;-85
2022/12/25 05:11:22;;;;;;;28.90;12.82;;;;;;;4.94;100.00;101204.75;10458506;28;20044;-86
2022/12/25 05:16:23;;;;;;;34.38;14.05;;;;;;;5.14;100.00;101200.16;10454090;28;20055;-86
2022/12/25 05:21:24;;;;;;;21.50;10.73;;;;;;;5.18;100.00;101196.09;10457748;28;20044;-86
2022/12/25 05:26:25;;;;;;;21.83;10.95;;;;;;;5.29;100.00;101195.22;10474442;28;20528;-86
2022/12/25 05:31:25;;;;;;;22.20;11.05;;;;;;;5.40;100.00;101196.91;10447481;28;20097;-86
2022/12/25 05:36:26;;;;;;;20.83;10.40;;;;;;;5.49;100.00;101193.19;10474548;28;20121;-86
2022/12/25 05:41:26;;;;;;;21.08;10.45;;;;;;;5.54;100.00;101190.13;10454447;28;20358;-85
2022/12/25 05:46:27;;;;;;;18.85;10.45;;;;;;;5.57;100.00;101176.47;10484183;28;20076;-84
2022/12/25 05:51:27;;;;;;;24.50;10.98;;;;;;;5.63;100.00;101179.50;10475191;28;20044;-86
2022/12/25 05:56:28;;;;;;;20.23;9.73;;;;;;;5.79;100.00;101178.03;10471445;28;20524;-86
2022/12/25 06:01:28;;;;;;;15.25;8.30;;;;;;;5.89;100.00;101180.50;10451810;28;20841;-82
2022/12/25 06:06:29;;;;;;;19.45;9.48;;;;;;;6.05;100.00;101173.81;10458923;28;20049;-87
2022/12/25 06:11:29;;;;;;;16.33;7.53;;;;;;;6.12;100.00;101158.75;10450023;28;20064;-82
2022/12/25 06:16:30;;;;;;;15.13;8.23;;;;;;;6.20;100.00;101140.19;10427274;28;20086;-86
2022/12/25 06:21:30;;;;;;;15.90;7.68;;;;;;;6.03;100.00;101134.72;10431659;28;20043;-86
2022/12/25 06:26:31;;;;;;;16.15;6.25;;;;;;;6.07;100.00;101128.94;10427515;28;20128;-85
2022/12/25 06:31:31;;;;;;;19.30;6.28;;;;;;;6.12;100.00;101139.69;10449209;28;20033;-88
2022/12/25 06:36:32;;;;;;;13.00;6.32;;;;;;;6.15;100.00;101140.78;10467561;28;20066;-87
2022/12/25 06:41:32;;;;;;;10.60;5.40;;;;;;;6.16;100.00;101118.31;10482173;28;20056;-89
2022/12/25 06:46:33;;;;;;;12.02;5.70;;;;;;;6.20;100.00;101098.59;10462628;28;20040;-92
2022/12/25 06:51:33;;;;;;;12.38;6.10;;;;;;;6.16;100.00;101093.19;10486731;28;20532;-89
2022/12/25 06:56:34;;;;;;;18.08;6.78;;;;;;;6.13;100.00;101072.19;10413863;28;20120;-88
2022/12/25 07:01:37;;;;;;;12.57;7.20;;;;;;;6.20;100.00;101054.44;10390800;28;20177;-86
2022/12/25 07:06:37;;;;;;;16.52;4.95;;;;;;;6.16;100.00;101054.22;10399365;28;20042;-86
2022/12/25 07:11:38;;;;;;;9.13;5.22;;;;;;;6.10;100.00;101061.59;10426779;28;20062;-85
2022/12/25 07:16:38;;;;;;;13.95;4.80;;;;;;;6.04;100.00;101058.56;10361743;28;20037;-84
2022/12/25 07:21:39;;;;;;;8.60;4.15;;;;;;;6.05;100.00;101041.31;10407459;28;20072;-86
2022/12/25 07:26:40;;;;;;;8.05;3.85;;;;;;;6.12;100.00;101057.41;10439479;28;20533;-85
2022/12/25 07:31:40;;;;;;;8.73;3.78;;;;;;;6.07;100.00;101035.41;10454927;28;20045;-86
2022/12/25 07:36:40;;;;;;;12.60;3.90;;;;;;;6.06;100.00;101031.00;10472590;28;20115;-85
2022/12/25 07:41:42;;;;;;;9.23;3.53;;;;;;;6.11;100.00;101034.81;10468406;28;20034;-86
2022/12/25 07:46:42;;;;;;;14.45;4.32;;;;;;;6.11;100.00;101047.81;10433928;28;20071;-86
2022/12/25 07:51:43;;;;;;;10.77;4.88;;;;;;;6.17;100.00;101052.53;10451369;28;20469;-87
2022/12/25 07:56:43;;;;;;;11.32;5.03;;;;;;;6.20;100.00;101062.22;10423229;28;20043;-87
2022/12/25 08:01:44;;;;;;;11.02;3.75;;;;;;;6.22;100.00;101064.16;10440567;28;20551;-88
2022/12/25 08:06:44;;;;;;;19.60;7.10;;;;;;;6.34;100.00;101056.25;10472078;28;20043;-87
2022/12/25 08:11:47;;;;;;;10.75;6.55;;;;;;;6.39;100.00;101088.69;10458418;28;20068;-85
2022/12/25 08:16:48;;;;;;;13.23;6.63;;;;;;;6.44;100.00;101070.81;10427405;28;20064;-87
2022/12/25 08:21:48;;;;;;;9.48;4.40;;;;;;;6.55;100.00;101089.72;10440984;28;20143;-86
2022/12/25 08:26:49;;;;;;;11.38;5.35;;;;;;;6.52;100.00;101105.13;10441221;28;20524;-89
2022/12/25 08:31:49;;;;;;;11.30;5.30;;;;;;;6.59;100.00;101107.31;10474341;28;20048;-88
2022/12/25 08:36:50;;;;;;;7.90;4.20;;;;;;;6.53;100.00;101113.03;10438350;28;20045;-88
2022/12/25 08:41:51;;;;;;;10.77;5.13;;;;;;;6.44;100.00;101110.69;10438146;28;20556;-88
2022/12/25 08:46:51;;;;;;;10.05;4.30;;;;;;;6.42;100.00;101094.09;10485827;28;20052;-88
2022/12/25 08:51:52;;;;;;;9.05;3.45;;;;;;;6.35;100.00;101090.97;10455998;28;20040;-86
2022/12/25 08:56:53;;;;;;;9.00;5.30;;;;;;;6.31;100.00;101128.84;10462327;28;20033;-84
2022/12/25 09:01:54;;;;;;;11.10;4.10;;;;;;;6.28;100.00;101147.75;10458268;28;20051;-89
2022/12/25 09:06:55;;;;;;;10.98;5.50;;;;;;;6.24;100.00;101140.53;10454901;28;20044;-84
2022/12/25 09:11:55;;;;;;;16.45;6.20;;;;;;;6.27;100.00;101145.03;10459286;28;20064;-82
2022/12/25 09:16:56;;;;;;;9.32;4.18;;;;;;;6.28;100.00;101128.63;10437942;28;20044;-85
2022/12/25 09:21:56;;;;;;;12.15;5.00;;;;;;;6.28;100.00;101094.84;10457011;28;20123;-86
2022/12/25 09:26:57;;;;;;;15.23;6.50;;;;;;;6.29;100.00;101107.97;10458307;28;20045;-89
2022/12/25 09:31:59;;;;;;;15.85;6.20;;;;;;;6.41;100.00;101123.47;10409072;28;20103;-94
2022/12/25 09:36:59;;;;;;;11.20;6.38;;;;;;;6.49;100.00;101130.91;10431988;28;20103;-89
2022/12/25 09:42:04;;;;;;;10.45;6.47;;;;;;;6.57;100.00;101107.25;10431001;28;20033;-90
2022/12/25 09:47:07;;;;;;;14.20;6.13;;;;;;;6.61;100.00;101092.72;10433689;28;20060;-90
2022/12/25 09:52:12;;;;;;;11.25;7.28;;;;;;;6.69;100.00;101082.84;10423543;28;20428;-87
2022/12/25 09:57:13;;;;;;;13.48;6.55;;;;;;;6.71;100.00;101086.47;10433234;28;20061;-88
2022/12/25 10:02:22;;;;;;;17.92;6.93;;;;;;;6.69;100.00;101080.25;10418567;28;22331;-88
2022/12/25 10:07:30;;;;;;;35.25;17.48;;;;;;;6.80;100.00;101053.25;10456029;28;20048;-88
2022/12/25 10:13:08;;;;;;;13.20;7.07;;;;;;;6.94;100.00;101048.94;10444491;28;20045;-89
2022/12/25 10:18:28;;;;;;;12.05;6.20;;;;;;;6.99;100.00;101057.06;10403493;28;20048;-90
2022/12/25 10:23:37;;;;;;;18.98;9.32;;;;;;;7.05;100.00;101053.13;10417283;28;20053;-90
2022/12/25 10:28:41;;;;;;;11.60;7.30;;;;;;;7.12;100.00;101063.94;10458097;28;20469;-86
2022/12/25 10:33:42;;;;;;;12.50;6.93;;;;;;;7.05;100.00;101049.66;10427118;28;20048;-91
2022/12/25 10:38:43;;;;;;;14.57;7.90;;;;;;;7.08;100.00;101028.09;10455336;28;20498;-86
2022/12/25 10:43:48;;;;;;;10.63;6.20;;;;;;;7.12;100.00;101022.31;10456158;28;20101;-86
2022/12/25 10:48:57;;;;;;;10.32;6.35;;;;;;;7.15;100.00;101017.28;10445326;28;20033;-86
2022/12/25 10:53:58;;;;;;;18.80;8.75;;;;;;;7.11;100.00;100994.47;10453041;28;20040;-93
2022/12/25 10:59:05;;;;;;;12.75;6.53;;;;;;;7.12;100.00;100972.84;10467939;28;20488;-92
2022/12/25 11:04:12;;;;;;;10.75;6.10;;;;;;;7.18;100.00;100966.34;10405294;28;20536;-90
2022/12/25 11:09:13;;;;;;;11.25;7.25;;;;;;;7.23;100.00;100935.38;10414214;28;20041;-89
2022/12/25 11:14:16;;;;;;;16.73;6.35;;;;;;;7.23;100.00;100944.91;10433401;28;20037;-91
2022/12/25 11:19:28;;;;;;;14.43;6.25;;;;;;;7.25;100.00;100949.38;10388470;28;20086;-88
2022/12/25 11:24:33;;;;;;;12.25;5.97;;;;;;;7.24;100.00;100936.28;10411268;28;20049;-82
2022/12/25 11:30:00;;;;;;;13.00;7.28;;;;;;;7.29;100.00;100934.88;10429783;28;20455;-93
2022/12/25 11:35:01;;;;;;;10.15;5.80;;;;;;;7.37;100.00;100906.69;10412255;28;20044;-92
2022/12/25 11:40:01;;;;;;;11.07;5.50;;;;;;;7.34;100.00;100908.28;10416580;28;20050;-90
2022/12/25 11:45:06;;;;;;;9.48;5.05;;;;;;;7.37;100.00;100909.28;10410946;28;20045;-89
2022/12/25 11:50:25;;;;;;;11.98;7.30;;;;;;;7.44;100.00;100911.47;10445675;28;20040;-95
2022/12/25 11:55:43;;;;;;;14.90;7.53;;;;;;;7.47;100.00;100909.03;10415302;28;20037;-89
2022/12/25 12:00:44;;;;;;;11.43;5.22;;;;;;;7.60;100.00;100895.06;10446963;28;20090;-95
2022/12/25 12:05:45;;;;;;;13.95;7.22;;;;;;;7.61;100.00;100878.63;10434427;28;20452;-96
2022/12/25 12:11:17;;;;;;;17.75;8.98;;;;;;;7.55;100.00;100871.34;10480674;28;20048;-96
2022/12/25 12:16:18;;;;;;;14.33;8.77;;;;;;;7.53;100.00;100880.78;10407677;28;20477;-96
2022/12/25 12:21:28;;;;;;;15.18;7.95;;;;;;;7.60;100.00;100877.72;10450684;28;20064;-95
2022/12/25 12:26:30;;;;;;;13.55;7.95;;;;;;;7.54;100.00;100869.53;10485439;28;20039;-94
2022/12/25 12:31:47;;;;;;;10.88;7.28;;;;;;;7.60;100.00;100861.22;10463243;28;20039;-94
2022/12/25 12:36:48;;;;;;;16.65;8.88;;;;;;;7.57;100.00;100856.72;10455833;28;20044;-95
2022/12/25 12:41:49;;;;;;;11.23;7.03;;;;;;;7.60;100.00;100846.47;10460786;28;20075;-94
2022/12/25 12:46:54;;;;;;;14.52;9.07;;;;;;;7.66;100.00;100845.03;10462938;28;20043;-94
2022/12/25 12:52:06;;;;;;;11.20;7.80;;;;;;;7.63;100.00;100846.66;10448298;28;21604;-92
2022/12/25 12:57:21;;;;;;;16.80;7.82;;;;;;;7.57;100.00;100845.41;10463209;28;20481;-93
2022/12/25 13:02:47;;;;;;;11.07;6.05;;;;;;;7.64;100.00;100839.75;10444384;28;20624;-92
2022/12/25 13:08:11;;;;;;;8.65;6.32;;;;;;;7.55;100.00;100834.88;10449730;28;20045;-93
2022/12/25 13:13:20;;;;;;;14.95;7.93;;;;;;;7.54;100.00;100824.38;10435451;28;20040;-87
2022/12/25 13:18:21;;;;;;;9.02;5.45;;;;;;;7.52;100.00;100807.78;10435003;28;20052;-92
2022/12/25 13:23:29;;;;;;;10.27;6.40;;;;;;;7.51;100.00;100801.66;10440046;28;20588;-90
2022/12/25 13:28:31;;;;;;;12.10;8.18;;;;;;;7.62;100.00;100789.28;10436785;28;20037;-93
2022/12/25 13:33:32;;;;;;;;;;;;;;;7.58;100.00;100792.50;10427681;28;20044;-94
2022/12/25 13:38:32;;;;;;;9.77;6.30;;;;;;;7.56;100.00;100781.97;10435454;28;19921;-94
2022/12/25 13:43:33;;;;;;;10.85;7.68;;;;;;;7.56;100.00;100784.59;10451442;28;20069;-96
2022/12/25 13:48:33;;;;;;;11.52;8.48;;;;;;;7.53;100.00;100787.00;10462366;28;20116;-94
2022/12/25 13:53:34;;;;;;;11.90;8.48;;;;;;;7.56;100.00;100788.91;10437768;28;20037;-91
2022/12/25 13:58:36;;;;;;;17.55;8.73;;;;;;;7.58;100.00;100782.97;10417154;28;20048;-90
2022/12/25 14:03:39;;;;;;;13.13;8.55;;;;;;;7.58;100.00;100782.09;10438768;28;20037;-93
2022/12/25 14:08:40;;;;;;;15.40;8.68;;;;;;;7.59;100.00;100773.47;10422225;28;20532;-85
2022/12/25 14:13:41;;;;;;;14.05;10.23;;;;;;;7.60;100.00;100781.34;10424545;28;20144;-86
2022/12/25 14:18:52;;;;;;;15.53;10.50;;;;;;;7.62;100.00;100781.47;10406150;28;20112;-86
2022/12/25 14:23:52;;;;;;;18.02;11.93;;;;;;;7.69;100.00;100781.00;10429727;28;20397;-86
2022/12/25 14:29:08;;;;;;;15.43;10.07;;;;;;;7.66;100.00;100759.06;10434471;28;20128;-92
2022/12/25 14:34:20;;;;;;;16.35;10.05;;;;;;;7.66;100.00;100749.56;10440934;28;20053;-90
2022/12/25 14:39:25;;;;;;;11.77;7.43;;;;;;;7.62;100.00;100755.41;10386889;28;20052;-89
2022/12/25 14:44:37;;;;;;;16.80;10.77;;;;;;;7.61;100.00;100741.47;10395689;28;20149;-89
2022/12/25 14:49:38;;;;;;;17.73;11.80;;;;;;;7.60;100.00;100744.00;10377252;28;20401;-88
2022/12/25 14:54:38;;;;;;;17.05;10.90;;;;;;;7.60;100.00;100728.38;10392700;28;20356;-91
2022/12/25 14:59:39;;;;;;;16.80;11.35;;;;;;;7.67;100.00;100727.91;10387312;28;20126;-87
2022/12/25 15:04:42;;;;;;;15.48;10.55;;;;;;;7.59;100.00;100714.44;10385012;28;20045;-86
2022/12/25 15:09:42;;;;;;;20.77;12.23;;;;;;;7.61;100.00;100717.16;10414587;28;20045;-88
2022/12/25 15:14:43;;;;;;;22.88;9.35;;;;;;;7.52;100.00;100707.09;10402283;28;20409;-87
2022/12/25 15:19:43;;;;;;;14.30;8.88;;;;;;;7.49;100.00;100706.91;10406326;28;20126;-87
2022/12/25 15:24:44;;;;;;;15.35;10.30;;;;;;;7.45;100.00;100705.84;10358520;28;20117;-87
2022/12/25 15:29:44;;;;;;;22.40;13.30;;;;;;;7.40;100.00;100722.00;10402859;28;20051;-86
2022/12/25 15:34:46;;;;;;;19.65;13.73;;;;;;;7.33;100.00;100719.03;10396173;28;20041;-85
2022/12/25 15:39:46;;;;;;;9.87;8.27;;;;;;;7.28;100.00;100711.78;10389140;28;20405;-82
2022/12/25 15:44:47;;;;;;;60.67;15.77;;;;;;;7.24;100.00;100710.69;10413851;28;20117;-85
2022/12/25 15:49:47;;;;;;;20.60;12.07;;;;;;;7.23;100.00;100714.09;10402428;28;20128;-88
2022/12/25 15:54:48;;;;;;;20.85;12.60;;;;;;;7.23;100.00;100716.69;10408788;28;20106;-83
2022/12/25 15:59:49;;;;;;;21.23;13.23;;;;;;;7.23;100.00;100715.81;10408135;28;20478;-83
2022/12/25 16:04:49;;;;;;;21.83;12.98;;;;;;;7.24;100.00;100717.63;10416812;28;20119;-84
2022/12/25 16:09:50;;;;;;;28.15;11.77;;;;;;;7.19;100.00;100714.72;10421448;28;20036;-82
2022/12/25 16:14:51;;;;;;;18.30;11.98;;;;;;;7.19;100.00;100714.72;10450580;28;20131;-81
2022/12/25 16:19:51;;;;;;;21.10;11.38;;;;;;;7.17;100.00;100714.66;10437436;28;20055;-86
2022/12/25 16:24:52;;;;;;;20.73;14.38;;;;;;;7.16;100.00;100710.25;10437003;28;20056;-87
2022/12/25 16:29:53;;;;;;;24.88;17.42;;;;;;;7.16;100.00;100709.34;10438179;28;20132;-83
2022/12/25 16:34:53;;;;;;;26.95;15.10;;;;;;;7.15;100.00;100708.47;10406911;28;20044;-83
2022/12/25 16:39:54;;;;;;;27.25;15.70;;;;;;;7.15;100.00;100721.47;10420627;28;20065;-83
2022/12/25 16:44:54;;;;;;;24.17;14.10;;;;;;;7.15;100.00;100717.97;10452522;28;20053;-83
2022/12/25 16:49:55;;;;;;;24.10;14.05;;;;;;;7.14;100.00;100735.28;10437910;28;20493;-85
2022/12/25 16:54:55;;;;;;;23.60;13.13;;;;;;;7.11;100.00;100729.00;10436453;28;20132;-84
2022/12/25 16:59:56;;;;;;;26.50;16.02;;;;;;;7.13;100.00;100716.97;10436982;28;20485;-85
2022/12/25 17:04:56;;;;;;;32.95;15.82;;;;;;;7.12;100.00;100716.09;10453928;28;20174;-84
2022/12/25 17:09:57;;;;;;;17.42;10.98;;;;;;;7.13;100.00;100725.69;10417507;28;20116;-83
2022/12/25 17:14:57;;;;;;;24.15;13.60;;;;;;;7.14;100.00;100721.38;10450515;28;20041;-82
2022/12/25 17:19:58;;;;;;;30.15;16.88;;;;;;;7.17;100.00;100718.94;10429205;28;20753;-89
2022/12/25 17:24:58;;;;;;;24.95;18.02;;;;;;;7.22;100.00;100712.31;10433669;28;20033;-83
2022/12/25 17:29:59;;;;;;;24.00;15.10;;;;;;;7.26;100.00;100716.88;10429273;28;20088;-84
2022/12/25 17:34:59;;;;;;;30.33;20.50;;;;;;;7.29;100.00;100722.28;10455728;28;20578;-82
2022/12/25 17:40:00;;;;;;;27.83;18.75;;;;;;;7.31;100.00;100715.44;10456895;28;20102;-85
2022/12/25 17:45:01;;;;;;;28.83;17.23;;;;;;;7.35;100.00;100725.22;10452447;28;20499;-84
2022/12/25 17:50:01;;;;;;;36.20;23.70;;;;;;;7.47;100.00;100734.56;10446510;28;20049;-84
2022/12/25 17:55:02;;;;;;;34.13;22.75;;;;;;;7.48;100.00;100737.28;10453081;28;20037;-84
2022/12/25 18:00:03;;;;;;;33.17;21.75;;;;;;;7.46;100.00;100730.16;10448200;28;20116;-84
2022/12/25 18:05:04;;;;;;;37.88;23.65;;;;;;;7.45;100.00;100729.28;10463754;28;20090;-82
2022/12/25 18:10:05;;;;;;;29.67;19.10;;;;;;;7.49;100.00;100722.53;10445219;28;20581;-82
2022/12/25 18:15:06;;;;;;;33.90;21.92;;;;;;;7.55;100.00;100712.47;10413804;28;20442;-81
2022/12/25 18:20:07;;;;;;;41.20;24.67;;;;;;;7.58;100.00;100714.38;10450309;28;20405;-82
2022/12/25 18:25:08;;;;;;;36.92;24.98;;;;;;;7.64;100.00;100707.78;10450236;28;20507;-81
2022/12/25 18:30:09;;;;;;;45.83;29.00;;;;;;;7.69;100.00;100714.97;10443246;28;20045;-82
2022/12/25 18:35:09;;;;;;;50.85;30.38;;;;;;;7.73;100.00;100730.88;10422388;28;20112;-81
2022/12/25 18:40:10;;;;;;;43.38;27.83;;;;;;;7.86;100.00;100736.78;10408995;28;20049;-82
2022/12/25 18:45:12;;;;;;;37.97;26.80;;;;;;;8.01;100.00;100736.72;10406147;28;20040;-82
2022/12/25 18:50:12;;;;;;;49.08;28.58;;;;;;;8.04;100.00;100748.25;10408231;28;20504;-82
2022/12/25 18:55:13;;;;;;;41.90;26.30;;;;;;;8.04;100.00;100742.09;10444069;28;20024;-82
2022/12/25 19:00:15;;;;;;;39.03;25.95;;;;;;;8.15;100.00;100733.19;10431882;28;20477;-83
2022/12/25 19:05:17;;;;;;;41.75;27.00;;;;;;;8.18;100.00;100741.16;10444251;28;20054;-83
2022/12/25 19:10:17;;;;;;;39.00;24.15;;;;;;;8.17;100.00;100759.34;10420607;28;20044;-83
2022/12/25 19:15:18;;;;;;;37.90;23.33;;;;;;;8.28;100.00;100754.72;10407315;28;20579;-83
2022/12/25 19:20:18;;;;;;;30.25;19.17;;;;;;;8.43;100.00;100737.28;10484313;28;20106;-84
2022/12/25 19:25:19;;;;;;;30.27;18.20;;;;;;;8.52;100.00;100736.94;10478055;28;20045;-85
2022/12/25 19:30:19;;;;;;;27.17;17.83;;;;;;;8.62;100.00;100730.50;10438005;28;20136;-83
2022/12/25 19:35:20;;;;;;;29.77;16.70;;;;;;;8.67;100.00;100705.53;10418213;28;20044;-83
2022/12/25 19:40:21;;;;;;;21.27;14.23;;;;;;;8.60;100.00;100722.59;10416779;28;20127;-88
2022/12/25 19:45:23;;;;;;;20.63;13.47;;;;;;;8.73;100.00;100731.97;10424513;28;20028;-83
2022/12/25 19:50:27;;;;;;;20.40;13.82;;;;;;;8.78;100.00;100740.94;10455237;28;20294;-84
2022/12/25 19:55:27;;;;;;;25.67;13.07;;;;;;;8.81;100.00;100743.69;10445828;28;20737;-82
2022/12/25 20:00:28;;;;;;;25.30;14.10;;;;;;;8.82;100.00;100753.31;10397389;28;20060;-82
2022/12/25 20:05:29;;;;;;;25.10;12.52;;;;;;;8.89;100.00;100745.81;10430804;28;20068;-84
2022/12/25 20:10:29;;;;;;;21.50;14.25;;;;;;;8.87;100.00;100753.56;10440160;28;20040;-85
2022/12/25 20:15:30;;;;;;;26.92;15.75;;;;;;;8.88;100.00;100744.03;10442686;28;20043;-85
2022/12/25 20:20:30;;;;;;;23.48;13.82;;;;;;;8.84;100.00;100734.22;10444784;28;20063;-85
2022/12/25 20:25:31;;;;;;;18.23;12.10;;;;;;;8.80;100.00;100731.47;10447866;28;20143;-83
2022/12/25 20:30:31;;;;;;;18.50;11.52;;;;;;;8.82;100.00;100729.84;10414335;28;20124;-84
2022/12/25 20:35:32;;;;;;;24.42;13.73;;;;;;;8.80;100.00;100735.81;10459287;28;20396;-83
2022/12/25 20:40:32;;;;;;;18.40;11.50;;;;;;;8.73;100.00;100726.75;10442986;28;20044;-84
2022/12/25 20:45:33;;;;;;;25.00;11.50;;;;;;;8.63;100.00;100725.38;10416227;28;20445;-85
2022/12/25 20:50:33;;;;;;;24.67;12.70;;;;;;;8.68;100.00;100735.16;10420977;28;20146;-85
2022/12/25 20:55:34;;;;;;;22.77;13.57;;;;;;;8.70;100.00;100744.84;10434365;28;20127;-85
2022/12/25 21:00:38;;;;;;;21.38;12.98;;;;;;;8.69;100.00;100770.88;10445590;28;20048;-85
2022/12/25 21:05:48;;;;;;;17.52;11.10;;;;;;;8.68;100.00;100782.13;10405743;28;20045;-93
2022/12/25 21:10:51;;;;;;;22.02;13.38;;;;;;;8.73;100.00;100789.38;10429904;28;20129;-89
2022/12/25 21:15:51;;;;;;;22.88;11.85;;;;;;;8.75;100.00;100782.50;10453028;28;20033;-90
2022/12/25 21:20:54;;;;;;;32.38;14.77;;;;;;;8.75;100.00;100779.91;10449185;28;20037;-89
2022/12/25 21:25:54;;;;;;;20.70;13.77;;;;;;;8.72;100.00;100795.41;10452837;28;20037;-88
2022/12/25 21:31:02;;;;;;;33.00;15.50;;;;;;;8.73;100.00;100807.63;10467748;28;20041;-89
2022/12/25 21:36:07;;;;;;;21.67;12.00;;;;;;;8.70;100.00;100801.38;10433511;28;20037;-87
2022/12/25 21:41:08;;;;;;;24.15;13.73;;;;;;;8.76;100.00;100799.09;10382533;28;20041;-88
2022/12/25 21:46:10;;;;;;;20.37;9.60;;;;;;;8.76;100.00;100805.19;10433336;28;20044;-89
2022/12/25 21:56:44;;;;;;;26.60;13.43;;;;;;;8.78;100.00;100818.34;10414835;28;20034;-87
2022/12/25 22:01:45;;;;;;;21.77;13.57;;;;;;;8.78;100.00;100826.16;10408236;28;20040;-86
2022/12/25 22:22:44;;;;;;;13.18;8.93;;;;;;;8.84;100.00;100841.25;10437165;28;20036;-86
2022/12/25 22:27:45;;;;;;;11.80;8.40;;;;;;;8.84;100.00;100844.75;10448247;28;20056;-87
2022/12/25 22:32:46;;;;;;;14.02;7.93;;;;;;;8.89;100.00;100838.06;10433871;28;20044;-88
2022/12/25 22:37:48;;;;;;;14.23;8.55;;;;;;;8.86;100.00;100843.13;10419185;28;20044;-88
2022/12/25 22:42:49;;;;;;;18.50;9.48;;;;;;;8.85;100.00;100850.88;10440996;28;20068;-90
2022/12/25 22:47:50;;;;;;;15.15;8.35;;;;;;;8.84;100.00;100841.25;10450277;28;20048;-87
2022/12/25 22:52:50;;;;;;;15.50;8.63;;;;;;;8.85;100.00;100836.13;10413233;28;20123;-90
2022/12/25 22:57:51;;;;;;;21.20;9.70;;;;;;;8.91;100.00;100835.53;10452718;28;20179;-88
2022/12/25 23:02:51;;;;;;;15.50;10.02;;;;;;;8.84;100.00;100843.84;10441278;28;20032;-88
2022/12/25 23:07:52;;;;;;;16.23;9.38;;;;;;;8.88;100.00;100851.94;10415417;28;20054;-87
2022/12/25 23:34:09;;;;;;;16.13;9.75;;;;;;;8.80;100.00;100859.34;10448524;28;20461;-89
2022/12/25 23:39:10;;;;;;;18.42;9.10;;;;;;;8.80;100.00;100848.03;10442773;28;20033;-89
2022/12/25 23:44:11;;;;;;;18.27;10.93;;;;;;;8.74;100.00;100852.91;10436016;28;20037;-86
2022/12/25 23:49:11;;;;;;;17.30;11.07;;;;;;;8.71;100.00;100858.84;10456394;28;20047;-87
2022/12/25 23:54:14;;;;;;;15.30;9.77;;;;;;;8.66;100.00;100857.69;10442480;28;20134;-88
2022/12/25 23:59:15;;;;;;;16.52;10.77;;;;;;;8.71;100.00;100856.22;10435014;28;20041;-86
